Time;durP1;ratioP1;P1;durP2;ratioP2;P2;SDS_P1;SDS_P2;PMS_P1;PMS_P2;Temp;Humidity;BMP_temperature;BMP_pressure;BME280_temperature;BME280_humidity;BME280_pressure;Samples;Min_cycle;Max_cycle;Signal;HPM_P1;HPM_P2
2021/05/02 00:01:59;;;;;;;15.80;6.78;;;461.10;2380.80;;;;;;5072926;28;20031;-68
2021/05/02 00:04:26;;;;;;;14.68;6.28;;;461.10;2380.80;;;;;;5072509;28;20020;-68
2021/05/02 00:06:53;;;;;;;15.82;6.70;;;461.10;2380.80;;;;;;5069327;28;20024;-67
2021/05/02 00:09:18;;;;;;;16.45;7.05;;;461.10;2380.80;;;;;;5072260;28;20035;-68
2021/05/02 00:11:45;;;;;;;15.20;6.88;;;461.00;2380.80;;;;;;5068427;28;20021;-66
2021/05/02 00:14:11;;;;;;;16.88;7.13;;;460.90;2380.80;;;;;;5067038;28;20100;-67
2021/05/02 00:16:36;;;;;;;12.45;6.30;;;460.90;2380.80;;;;;;5066178;28;20079;-68
2021/05/02 00:19:06;;;;;;;14.00;6.00;;;460.90;2380.80;;;;;;5076979;28;20119;-64
2021/05/02 00:21:32;;;;;;;13.27;6.15;;;460.90;2380.80;;;;;;5075438;28;20040;-65
2021/05/02 00:23:58;;;;;;;15.05;5.30;;;460.90;2380.80;;;;;;5071842;28;20047;-68
2021/05/02 00:26:25;;;;;;;16.05;5.85;;;460.90;2380.80;;;;;;5071011;28;20358;-67
2021/05/02 00:28:52;;;;;;;12.48;5.65;;;460.90;2380.80;;;;;;5070736;28;20078;-67
2021/05/02 00:31:19;;;;;;;13.48;5.40;;;460.90;2380.80;;;;;;5073757;28;20075;-64
2021/05/02 00:33:45;;;;;;;12.80;5.18;;;461.00;2380.80;;;;;;5072709;28;20362;-71
2021/05/02 00:36:11;;;;;;;12.88;5.78;;;461.00;2380.80;;;;;;5074110;28;20431;-65
2021/05/02 00:38:39;;;;;;;14.65;5.90;;;461.00;2380.80;;;;;;5072436;28;20028;-67
2021/05/02 00:41:12;;;;;;;14.65;6.18;;;461.00;2380.80;;;;;;5085274;28;20037;-66
2021/05/02 00:44:10;;;;;;;13.68;6.07;;;461.00;2380.80;;;;;;5090648;28;20048;-66
2021/05/02 00:46:37;;;;;;;12.07;6.13;;;460.90;2380.80;;;;;;5086813;28;20032;-67
2021/05/02 00:49:12;;;;;;;16.05;5.60;;;460.90;2380.80;;;;;;5087247;28;20028;-67
2021/05/02 00:51:39;;;;;;;12.52;5.55;;;460.90;2380.80;;;;;;5083976;28;20400;-65
2021/05/02 00:54:13;;;;;;;14.75;5.50;;;460.90;2380.80;;;;;;5087324;28;20051;-65
2021/05/02 00:56:53;;;;;;;11.60;5.80;;;460.90;2380.80;;;;;;5086704;28;20017;-65
2021/05/02 00:59:25;;;;;;;9.98;4.82;;;460.90;2380.80;;;;;;5090920;28;20032;-65
2021/05/02 01:01:52;;;;;;;11.60;5.28;;;460.90;2380.80;;;;;;5083813;28;20024;-65
2021/05/02 01:04:30;;;;;;;12.68;5.80;;;460.80;2380.80;;;;;;5091386;28;20035;-65
2021/05/02 01:07:01;;;;;;;13.75;5.30;;;436.10;2355.20;;;;;;5086080;28;20078;-66
2021/05/02 01:09:29;;;;;;;11.30;5.10;;;436.00;2355.20;;;;;;5082543;28;20032;-65
2021/05/02 01:11:58;;;;;;;12.30;5.40;;;436.00;2355.20;;;;;;5087719;28;20026;-65
2021/05/02 01:14:25;;;;;;;13.50;6.15;;;436.00;2355.20;;;;;;5088982;28;20435;-65
2021/05/02 01:16:56;;;;;;;13.50;5.78;;;436.00;2355.20;;;;;;5084758;28;20017;-65
2021/05/02 01:19:21;;;;;;;;;;;436.00;2355.20;;;;;;5071519;28;20062;-65
2021/05/02 01:21:50;;;;;;;13.05;5.30;;;436.00;2355.20;;;;;;5077649;28;19908;-67
2021/05/02 01:24:16;;;;;;;11.25;5.15;;;435.90;2355.20;;;;;;5085472;28;20159;-66
2021/05/02 01:26:45;;;;;;;13.15;5.20;;;435.80;2355.20;;;;;;5078693;28;20031;-66
2021/05/02 01:29:12;;;;;;;13.32;5.30;;;435.60;2355.20;;;;;;5074035;28;20416;-66
2021/05/02 01:31:38;;;;;;;10.60;5.10;;;435.50;2355.20;;;;;;5073232;28;20047;-66
2021/05/02 01:34:05;;;;;;;12.07;4.90;;;435.40;2355.20;;;;;;5076636;28;20096;-65
2021/05/02 01:36:31;;;;;;;12.80;4.55;;;435.50;2355.20;;;;;;5076149;28;20584;-68
2021/05/02 01:38:57;;;;;;;10.90;4.53;;;435.50;2355.20;;;;;;5075692;28;20389;-65
2021/05/02 01:41:25;;;;;;;14.25;5.05;;;435.50;2355.20;;;;;;5081538;28;20384;-66
2021/05/02 01:43:51;;;;;;;11.95;5.20;;;435.50;2355.20;;;;;;5075080;28;20481;-65
2021/05/02 01:46:22;;;;;;;11.73;5.40;;;435.60;2355.20;;;;;;5073201;28;20039;-65
2021/05/02 01:48:49;;;;;;;11.02;4.75;;;435.60;2355.20;;;;;;5073385;28;20028;-65
2021/05/02 01:51:15;;;;;;;11.85;4.50;;;435.60;2355.20;;;;;;5073548;28;20377;-66
2021/05/02 01:53:41;;;;;;;14.32;4.45;;;435.70;2355.20;;;;;;5073402;28;20021;-65
2021/05/02 01:56:07;;;;;;;11.55;4.82;;;435.70;2355.20;;;;;;5073221;28;20052;-65
2021/05/02 01:58:35;;;;;;;12.80;4.80;;;435.80;2355.20;;;;;;5072763;28;20059;-65
2021/05/02 02:01:09;;;;;;;11.68;4.40;;;435.80;2355.20;;;;;;5073659;28;20020;-64
2021/05/02 02:03:35;;;;;;;12.98;4.82;;;435.80;2355.20;;;;;;5073076;28;20031;-71
2021/05/02 02:06:02;;;;;;;10.05;4.88;;;435.80;2355.20;;;;;;5073178;28;20050;-65
2021/05/02 02:08:28;;;;;;;11.38;4.95;;;435.80;2355.20;;;;;;5071868;28;20029;-65
2021/05/02 02:10:54;;;;;;;19.88;8.48;;;435.80;2355.20;;;;;;5073179;28;20358;-65
2021/05/02 02:13:20;;;;;;;15.30;6.47;;;435.80;2355.20;;;;;;5072994;28;20029;-66
2021/05/02 02:15:47;;;;;;;15.63;6.95;;;435.80;2355.20;;;;;;5072757;28;20017;-65
2021/05/02 02:18:15;;;;;;;13.77;6.43;;;435.80;2355.20;;;;;;5072990;28;20450;-67
2021/05/02 02:20:53;;;;;;;16.58;6.53;;;435.70;2355.20;;;;;;5072589;28;20377;-66
2021/05/02 02:23:23;;;;;;;13.05;5.85;;;435.70;2355.20;;;;;;5072875;28;20139;-65
2021/05/02 02:25:49;;;;;;;18.63;10.90;;;435.70;2355.20;;;;;;5072814;28;20060;-67
2021/05/02 02:28:18;;;;;;;23.60;11.27;;;435.70;2355.20;;;;;;5072496;28;20028;-67
2021/05/02 02:30:47;;;;;;;20.95;8.82;;;435.60;2355.20;;;;;;5072319;28;20032;-66
2021/05/02 02:33:15;;;;;;;11.85;6.30;;;435.60;2355.20;;;;;;5072639;28;20021;-67
2021/05/02 02:35:52;;;;;;;15.05;7.03;;;435.60;2355.20;;;;;;5072410;28;20119;-66
2021/05/02 02:38:21;;;;;;;17.95;7.43;;;435.50;2355.20;;;;;;5072459;28;20386;-66
2021/05/02 02:40:49;;;;;;;14.32;5.05;;;435.40;2355.20;;;;;;5072182;28;20114;-65
2021/05/02 02:43:38;;;;;;;12.77;5.45;;;435.40;2355.20;;;;;;5074287;28;20024;-67
2021/05/02 02:46:05;;;;;;;12.20;5.10;;;435.30;2355.20;;;;;;5076076;28;20495;-66
2021/05/02 02:48:34;;;;;;;14.52;5.40;;;435.40;2355.20;;;;;;5072437;28;20024;-67
2021/05/02 02:51:01;;;;;;;16.17;5.78;;;435.30;2355.20;;;;;;5072247;28;20020;-67
2021/05/02 02:53:30;;;;;;;10.90;5.50;;;435.30;2355.20;;;;;;5072175;28;20027;-67
2021/05/02 02:56:13;;;;;;;12.52;5.47;;;435.20;2355.20;;;;;;5072275;28;20064;-66
2021/05/02 02:59:03;;;;;;;16.27;7.05;;;435.20;2355.20;;;;;;5072051;28;20115;-66
2021/05/02 03:01:30;;;;;;;13.18;5.60;;;435.30;2355.20;;;;;;5071907;28;20025;-66
2021/05/02 03:03:58;;;;;;;13.52;6.13;;;435.20;2355.20;;;;;;5071897;28;20111;-67
2021/05/02 03:06:28;;;;;;;12.80;6.15;;;435.20;2355.20;;;;;;5071752;28;20052;-66
2021/05/02 03:08:56;;;;;;;13.13;5.53;;;435.20;2355.20;;;;;;5071533;28;20016;-67
2021/05/02 03:11:23;;;;;;;13.23;5.50;;;435.20;2355.20;;;;;;5071732;28;20032;-66
2021/05/02 03:13:49;;;;;;;12.18;5.40;;;435.20;2355.20;;;;;;5071726;28;20021;-66
2021/05/02 03:16:22;;;;;;;13.00;5.00;;;435.30;2355.20;;;;;;5050494;28;20017;-66
2021/05/02 03:19:01;;;;;;;13.73;5.32;;;435.30;2355.20;;;;;;5070084;28;20021;-67
2021/05/02 03:21:53;;;;;;;19.20;13.10;;;435.30;2355.20;;;;;;5071791;28;20665;-66
2021/05/02 03:24:30;;;;;;;12.98;6.43;;;435.30;2355.20;;;;;;5060032;28;20155;-66
2021/05/02 03:27:01;;;;;;;13.68;7.32;;;435.30;2355.20;;;;;;5071487;28;20032;-66
2021/05/02 03:29:37;;;;;;;18.15;9.35;;;435.30;2355.20;;;;;;5071207;28;20059;-66
2021/05/02 03:32:07;;;;;;;15.50;9.93;;;435.30;2355.20;;;;;;5071232;28;20493;-66
2021/05/02 03:34:36;;;;;;;21.00;16.17;;;435.20;2355.20;;;;;;5070100;28;20029;-65
2021/05/02 03:37:04;;;;;;;15.70;9.75;;;435.20;2355.20;;;;;;5071020;28;20281;-68
2021/05/02 03:39:30;;;;;;;19.30;9.90;;;435.30;2355.20;;;;;;5071088;28;20036;-66
2021/05/02 03:41:55;;;;;;;19.25;11.50;;;435.20;2355.20;;;;;;5071349;28;20029;-65
2021/05/02 03:44:21;;;;;;;14.90;7.50;;;435.20;2355.20;;;;;;5077168;28;20086;-66
2021/05/02 03:46:47;;;;;;;16.50;7.60;;;435.20;2355.20;;;;;;5071489;28;20025;-66
2021/05/02 03:49:12;;;;;;;17.55;7.55;;;435.20;2355.20;;;;;;5070833;28;20027;-65
2021/05/02 03:51:39;;;;;;;27.27;20.35;;;435.20;2355.20;;;;;;5071179;28;20021;-66
2021/05/02 03:54:06;;;;;;;17.38;9.50;;;410.50;2355.20;;;;;;5071343;28;20469;-65
2021/05/02 03:56:35;;;;;;;16.90;7.43;;;410.50;2355.20;;;;;;5071103;28;20020;-66
2021/05/02 03:59:10;;;;;;;13.23;7.22;;;435.20;2355.20;;;;;;5070687;28;20025;-67
2021/05/02 04:02:03;;;;;;;22.60;12.18;;;435.20;2355.20;;;;;;5071015;28;20112;-65
2021/05/02 04:04:34;;;;;;;18.98;11.48;;;435.30;2355.20;;;;;;5067073;28;20110;-66
2021/05/02 04:07:10;;;;;;;;;;;435.30;2355.20;;;;;;5071263;28;20385;-66
2021/05/02 04:09:37;;;;;;;16.65;7.97;;;435.40;2355.20;;;;;;5070611;28;19908;-66
2021/05/02 04:12:04;;;;;;;18.83;9.23;;;435.40;2355.20;;;;;;5071128;28;20539;-66
2021/05/02 04:14:30;;;;;;;19.05;9.10;;;435.50;2355.20;;;;;;5070891;28;20029;-65
2021/05/02 04:17:07;;;;;;;36.92;24.15;;;435.50;2355.20;;;;;;5070985;28;20539;-65
2021/05/02 04:19:35;;;;;;;27.00;15.45;;;435.60;2355.20;;;;;;5070547;28;20056;-67
2021/05/02 04:22:01;;;;;;;36.40;22.23;;;435.60;2355.20;;;;;;5070693;28;20024;-66
2021/05/02 04:24:27;;;;;;;20.80;10.57;;;435.60;2355.20;;;;;;5069257;28;20086;-66
2021/05/02 04:26:55;;;;;;;23.05;11.63;;;435.70;2355.20;;;;;;5070754;28;20063;-68
2021/05/02 04:29:22;;;;;;;21.88;11.10;;;435.70;2355.20;;;;;;5070227;28;20435;-65
2021/05/02 04:31:48;;;;;;;16.58;10.07;;;435.80;2355.20;;;;;;5074448;28;20024;-65
2021/05/02 04:34:14;;;;;;;22.08;12.00;;;435.90;2355.20;;;;;;5074522;28;20081;-66
2021/05/02 04:36:40;;;;;;;17.60;10.05;;;435.90;2355.20;;;;;;5074516;28;20445;-65
2021/05/02 04:39:06;;;;;;;22.60;12.38;;;435.90;2355.20;;;;;;5074236;28;20028;-66
2021/05/02 04:41:32;;;;;;;23.38;13.40;;;435.90;2355.20;;;;;;5074586;28;20077;-67
2021/05/02 04:43:58;;;;;;;25.70;14.82;;;436.10;2355.20;;;;;;5080660;28;20023;-65
2021/05/02 04:46:24;;;;;;;25.95;15.48;;;460.80;2380.80;;;;;;5074436;28;20125;-67
2021/05/02 04:48:50;;;;;;;17.15;10.25;;;460.80;2380.80;;;;;;5074338;28;20139;-66
2021/05/02 04:51:19;;;;;;;21.10;11.20;;;460.90;2380.80;;;;;;5074206;28;20048;-66
2021/05/02 04:53:45;;;;;;;15.45;7.10;;;460.90;2380.80;;;;;;5074502;28;20106;-66
2021/05/02 04:56:10;;;;;;;14.27;6.40;;;461.10;2380.80;;;;;;5074263;28;20070;-66
2021/05/02 04:58:36;;;;;;;14.35;6.32;;;461.20;2380.80;;;;;;5074165;28;20036;-65
2021/05/02 05:01:03;;;;;;;15.55;6.35;;;461.30;2380.80;;;;;;5056531;28;20032;-65
2021/05/02 05:03:29;;;;;;;15.10;6.65;;;461.40;2380.80;;;;;;5073893;28;20021;-65
2021/05/02 05:05:55;;;;;;;14.98;7.32;;;461.40;2380.80;;;;;;5074556;28;20103;-66
2021/05/02 05:08:20;;;;;;;16.48;7.25;;;461.50;2380.80;;;;;;5073873;28;20481;-68
2021/05/02 05:10:46;;;;;;;13.23;6.35;;;461.50;2380.80;;;;;;5073946;28;20028;-64
2021/05/02 05:13:13;;;;;;;16.88;6.25;;;461.50;2380.80;;;;;;5073626;28;20433;-66
2021/05/02 05:15:38;;;;;;;14.88;6.40;;;461.60;2380.80;;;;;;5074200;28;20092;-66
2021/05/02 05:18:04;;;;;;;18.17;7.13;;;461.60;2380.80;;;;;;5073854;28;20474;-66
2021/05/02 05:20:30;;;;;;;17.58;8.10;;;461.70;2380.80;;;;;;5073574;28;20024;-66
2021/05/02 05:22:56;;;;;;;18.33;9.90;;;461.70;2380.80;;;;;;5073784;28;20036;-65
2021/05/02 05:25:21;;;;;;;21.10;10.50;;;486.40;2380.80;;;;;;5073860;28;20422;-65
2021/05/02 05:27:47;;;;;;;19.15;11.35;;;486.40;2380.80;;;;;;5073718;28;20466;-65
2021/05/02 05:30:14;;;;;;;21.77;11.50;;;486.50;2380.80;;;;;;5073396;28;20021;-65
2021/05/02 05:32:39;;;;;;;18.30;10.25;;;486.80;2380.80;;;;;;5073648;28;20523;-65
2021/05/02 05:35:06;;;;;;;24.08;10.60;;;487.00;2380.80;;;;;;5073750;28;20025;-65
2021/05/02 05:37:32;;;;;;;18.70;9.73;;;487.10;2380.80;;;;;;5073558;28;20047;-65
2021/05/02 05:39:58;;;;;;;20.77;11.50;;;487.30;2380.80;;;;;;5073369;28;20392;-69
2021/05/02 05:42:24;;;;;;;20.60;12.52;;;512.20;2380.80;;;;;;5072225;28;20139;-66
2021/05/02 05:44:50;;;;;;;35.00;21.40;;;512.20;2380.80;;;;;;5079786;28;20024;-65
2021/05/02 05:47:17;;;;;;;25.23;12.18;;;512.20;2380.80;;;;;;5073252;28;20443;-65
2021/05/02 05:49:43;;;;;;;19.58;11.00;;;512.20;2380.80;;;;;;5073141;28;20178;-65
2021/05/02 05:52:10;;;;;;;20.33;10.65;;;487.30;2380.80;;;;;;5073676;28;20024;-65
2021/05/02 05:54:36;;;;;;;22.27;11.68;;;487.30;2380.80;;;;;;5073233;28;20024;-65
2021/05/02 05:57:03;;;;;;;22.30;11.35;;;487.30;2380.80;;;;;;5073212;28;20084;-65
2021/05/02 05:59:29;;;;;;;16.88;8.95;;;487.30;2380.80;;;;;;5072819;28;20021;-65
2021/05/02 06:01:55;;;;;;;20.05;9.20;;;512.00;2380.80;;;;;;5073099;28;20077;-65
2021/05/02 06:04:21;;;;;;;16.58;7.70;;;512.30;2380.80;;;;;;5073157;28;20032;-64
2021/05/02 06:06:47;;;;;;;15.63;7.45;;;512.70;2380.80;;;;;;5073440;28;20104;-65
2021/05/02 06:09:13;;;;;;;16.15;7.75;;;512.90;2380.80;;;;;;5072586;28;20024;-65
2021/05/02 06:11:38;;;;;;;14.30;7.45;;;537.80;2406.40;;;;;;5073036;28;20108;-67
2021/05/02 06:14:05;;;;;;;16.15;8.35;;;538.10;2406.40;;;;;;5073014;28;20044;-67
2021/05/02 06:16:31;;;;;;;15.95;8.05;;;538.20;2406.40;;;;;;5071466;28;20017;-64
2021/05/02 06:18:58;;;;;;;17.45;8.15;;;538.50;2406.40;;;;;;5058783;28;20070;-66
2021/05/02 06:21:25;;;;;;;18.80;8.75;;;563.20;2432.00;;;;;;5072841;28;20444;-67
2021/05/02 06:23:52;;;;;;;17.95;9.55;;;563.30;2432.00;;;;;;5073078;28;20029;-66
2021/05/02 06:26:19;;;;;;;16.70;8.93;;;563.60;2432.00;;;;;;5068830;28;20024;-66
2021/05/02 06:28:46;;;;;;;17.65;8.25;;;564.00;2432.00;;;;;;5072325;28;20051;-66
2021/05/02 06:31:12;;;;;;;17.23;7.60;;;588.90;2432.00;;;;;;5072618;28;20503;-68
2021/05/02 06:33:39;;;;;;;18.88;7.28;;;589.20;2380.80;;;;;;5072448;28;20393;-66
2021/05/02 06:36:05;;;;;;;14.63;7.05;;;589.30;2355.20;;;;;;5062910;28;20029;-66
2021/05/02 06:38:32;;;;;;;16.15;8.05;;;589.20;2329.60;;;;;;5072358;28;20052;-66
2021/05/02 06:40:58;;;;;;;22.90;10.70;;;589.00;2355.20;;;;;;5067431;28;20039;-67
2021/05/02 06:43:25;;;;;;;17.13;9.18;;;589.60;2329.60;;;;;;5073893;28;20016;-66
2021/05/02 06:45:50;;;;;;;19.55;9.55;;;614.80;2252.80;;;;;;5069577;28;20036;-65
2021/05/02 06:48:16;;;;;;;23.38;9.75;;;640.40;2150.40;;;;;;5071817;28;20532;-65
2021/05/02 06:50:42;;;;;;;17.20;7.93;;;665.70;2048.00;;;;;;5071880;28;20040;-66
2021/05/02 06:53:08;;;;;;;17.52;8.07;;;691.70;1843.20;;;;;;5071893;28;20036;-64
2021/05/02 06:55:34;;;;;;;44.95;25.83;;;717.20;1766.40;;;;;;5063359;28;20393;-65
2021/05/02 06:58:00;;;;;;;25.35;12.82;;;717.40;1664.00;;;;;;5059224;28;20025;-67
2021/05/02 07:00:27;;;;;;;15.25;8.32;;;717.40;1664.00;;;;;;5054362;28;20032;-65
2021/05/02 07:02:53;;;;;;;17.63;7.45;;;716.80;1689.60;;;;;;5064266;28;20381;-64
2021/05/02 07:05:19;;;;;;;16.02;6.00;;;691.50;1689.60;;;;;;5071818;28;20107;-64
2021/05/02 07:07:45;;;;;;;13.98;5.95;;;691.30;1689.60;;;;;;5072038;28;20074;-66
2021/05/02 07:10:12;;;;;;;18.90;6.93;;;691.20;1689.60;;;;;;5071519;28;20025;-64
2021/05/02 07:12:38;;;;;;;24.65;8.95;;;691.70;1664.00;;;;;;5071903;28;20028;-64
2021/05/02 07:15:04;;;;;;;20.35;10.75;;;691.90;1638.40;;;;;;5071653;28;20082;-64
2021/05/02 07:17:31;;;;;;;21.13;8.93;;;717.50;1587.20;;;;;;5067515;28;20033;-63
2021/05/02 07:19:57;;;;;;;13.57;6.30;;;742.60;1561.60;;;;;;5071294;28;20038;-64
2021/05/02 07:22:25;;;;;;;19.67;7.32;;;742.40;1561.60;;;;;;5067561;28;20108;-67
2021/05/02 07:24:51;;;;;;;16.73;6.53;;;742.90;1510.40;;;;;;5064227;28;20028;-64
2021/05/02 07:27:17;;;;;;;15.23;7.57;;;743.30;1484.80;;;;;;5071283;28;20028;-65
2021/05/02 07:29:43;;;;;;;15.57;8.57;;;768.20;1459.20;;;;;;5071179;28;20035;-67
2021/05/02 07:32:08;;;;;;;15.40;6.15;;;768.40;1459.20;;;;;;5071411;28;20040;-65
2021/05/02 07:34:34;;;;;;;12.27;6.47;;;768.80;1408.00;;;;;;5061534;28;20036;-64
2021/05/02 07:37:00;;;;;;;14.63;6.85;;;794.30;1382.40;;;;;;5067946;28;20434;-64
2021/05/02 07:39:26;;;;;;;14.77;5.30;;;819.60;1356.80;;;;;;5071269;28;20107;-66
2021/05/02 07:41:52;;;;;;;15.02;6.78;;;844.90;1305.60;;;;;;5059236;28;20057;-64
2021/05/02 07:44:18;;;;;;;11.82;5.15;;;819.80;1305.60;;;;;;5076101;28;20622;-64
2021/05/02 07:46:44;;;;;;;13.45;5.68;;;820.00;1280.00;;;;;;5071226;28;20103;-64
2021/05/02 07:49:10;;;;;;;13.07;5.07;;;845.00;1305.60;;;;;;5070985;28;20077;-64
2021/05/02 07:51:36;;;;;;;17.13;7.90;;;844.90;1305.60;;;;;;5059550;28;20092;-64
2021/05/02 07:54:02;;;;;;;18.80;6.65;;;819.60;1305.60;;;;;;5051697;28;20025;-65
2021/05/02 07:56:28;;;;;;;16.88;6.03;;;819.60;1305.60;;;;;;5051203;28;20020;-65
2021/05/02 07:58:54;;;;;;;17.50;6.90;;;794.00;1356.80;;;;;;5053048;28;20027;-65
2021/05/02 08:01:20;;;;;;;13.88;5.72;;;793.70;1382.40;;;;;;5061638;28;20127;-64
2021/05/02 08:03:46;;;;;;;13.63;5.68;;;768.60;1382.40;;;;;;5057532;28;20083;-68
2021/05/02 08:06:12;;;;;;;16.65;5.93;;;743.30;1408.00;;;;;;5052519;28;20040;-64
2021/05/02 08:08:38;;;;;;;15.40;6.22;;;743.20;1433.60;;;;;;5058757;28;20028;-65
2021/05/02 08:11:04;;;;;;;12.57;5.22;;;742.80;1459.20;;;;;;5051276;28;20063;-65
2021/05/02 08:13:29;;;;;;;18.65;6.75;;;742.90;1459.20;;;;;;5051163;28;20036;-65
2021/05/02 08:15:55;;;;;;;13.00;5.90;;;742.80;1459.20;;;;;;5055849;28;20028;-65
2021/05/02 08:18:21;;;;;;;15.98;5.03;;;742.70;1459.20;;;;;;5070370;28;20031;-66
2021/05/02 08:20:46;;;;;;;15.00;4.65;;;742.40;1459.20;;;;;;5061646;28;20411;-64
2021/05/02 08:23:12;;;;;;;13.93;4.57;;;717.50;1408.00;;;;;;5063837;28;20020;-64
2021/05/02 08:25:39;;;;;;;14.35;4.90;;;717.40;1459.20;;;;;;5070222;28;20370;-66
2021/05/02 08:28:05;;;;;;;14.27;5.13;;;717.50;1433.60;;;;;;5064758;28;20486;-66
2021/05/02 08:30:32;;;;;;;13.25;4.25;;;717.50;1459.20;;;;;;5056537;28;20029;-66
2021/05/02 08:32:58;;;;;;;11.90;4.78;;;717.50;1433.60;;;;;;5068474;28;20393;-66
2021/05/02 08:35:24;;;;;;;14.70;5.75;;;717.70;1459.20;;;;;;5054726;28;20017;-67
2021/05/02 08:37:49;;;;;;;16.13;5.15;;;717.50;1433.60;;;;;;5051741;28;20041;-66
2021/05/02 08:40:15;;;;;;;15.40;5.22;;;717.50;1433.60;;;;;;5046702;28;20033;-66
2021/05/02 08:42:41;;;;;;;14.80;3.97;;;717.60;1408.00;;;;;;5067571;28;21321;-65
2021/05/02 08:45:08;;;;;;;18.48;5.57;;;717.70;1382.40;;;;;;5070291;28;20042;-65
2021/05/02 08:47:36;;;;;;;16.20;4.85;;;717.50;1433.60;;;;;;5069582;28;20039;-66
2021/05/02 08:50:12;;;;;;;22.20;6.60;;;717.70;1331.20;;;;;;5069327;28;20028;-65
2021/05/02 08:52:38;;;;;;;17.08;4.15;;;717.70;1331.20;;;;;;5070200;28;20028;-68
2021/05/02 08:55:06;;;;;;;13.45;4.68;;;742.50;1356.80;;;;;;5069735;28;20033;-66
2021/05/02 08:57:33;;;;;;;15.88;4.07;;;742.50;1331.20;;;;;;5069229;28;20098;-66
2021/05/02 09:00:00;;;;;;;14.35;4.35;;;742.40;1356.80;;;;;;5069761;28;20036;-69
2021/05/02 09:02:28;;;;;;;18.45;6.00;;;742.40;1331.20;;;;;;5070015;28;20023;-65
2021/05/02 09:04:55;;;;;;;12.32;4.75;;;742.50;1305.60;;;;;;5069324;28;20039;-65
2021/05/02 09:07:21;;;;;;;20.98;11.80;;;742.80;1305.60;;;;;;5070094;28;20031;-65
2021/05/02 09:09:48;;;;;;;17.23;6.15;;;742.90;1305.60;;;;;;5070065;28;20037;-66
2021/05/02 09:12:24;;;;;;;21.30;7.47;;;742.70;1280.00;;;;;;5069861;28;20480;-65
2021/05/02 09:14:51;;;;;;;16.33;4.90;;;742.70;1280.00;;;;;;5069817;28;20078;-65
2021/05/02 09:17:26;;;;;;;33.13;16.27;;;742.90;1280.00;;;;;;5071759;28;20044;-66
2021/05/02 09:19:52;;;;;;;26.20;11.05;;;743.20;1254.40;;;;;;5073852;28;20107;-65
2021/05/02 09:22:19;;;;;;;17.38;4.50;;;743.30;1254.40;;;;;;5073276;28;20031;-66
2021/05/02 09:25:03;;;;;;;14.98;5.53;;;743.10;1203.20;;;;;;5073153;28;20028;-69
2021/05/02 09:27:29;;;;;;;17.85;5.30;;;743.30;1228.80;;;;;;5069636;28;20082;-66
2021/05/02 09:30:11;;;;;;;13.57;3.10;;;743.10;1203.20;;;;;;5065592;28;20036;-65
2021/05/02 09:32:44;;;;;;;17.08;6.10;;;743.00;1203.20;;;;;;5073069;28;20402;-66
2021/05/02 09:35:29;;;;;;;13.15;3.33;;;742.90;1203.20;;;;;;5072662;28;20032;-66
2021/05/02 09:38:10;;;;;;;13.75;4.50;;;743.10;1228.80;;;;;;5073772;28;20037;-65
2021/05/02 09:40:52;;;;;;;13.93;4.32;;;743.10;1203.20;;;;;;5073295;28;20036;-66
2021/05/02 09:43:37;;;;;;;23.77;9.88;;;743.10;1203.20;;;;;;5075004;28;20020;-65
2021/05/02 09:46:33;;;;;;;17.00;4.43;;;743.20;1177.60;;;;;;5073490;28;20024;-64
2021/05/02 09:49:08;;;;;;;17.30;7.88;;;743.30;1203.20;;;;;;5073011;28;20485;-66
2021/05/02 09:51:34;;;;;;;13.80;5.85;;;768.40;1203.20;;;;;;5070378;28;20039;-67
2021/05/02 09:54:18;;;;;;;14.85;4.55;;;768.10;1203.20;;;;;;5056031;28;20017;-65
2021/05/02 09:56:53;;;;;;;14.10;3.20;;;768.10;1177.60;;;;;;5066189;28;20123;-65
2021/05/02 10:02:10;;;;;;;23.15;10.25;;;768.40;1177.60;;;;;;4991091;26;20053;-66
2021/05/02 10:04:45;;;;;;;16.33;3.85;;;768.40;1177.60;;;;;;5032254;28;20017;-66
2021/05/02 10:07:13;;;;;;;13.18;2.85;;;768.50;1177.60;;;;;;5027681;28;20065;-65
2021/05/02 10:09:41;;;;;;;13.10;3.72;;;768.60;1126.40;;;;;;5032056;28;20037;-67
2021/05/02 10:12:09;;;;;;;18.33;6.95;;;793.80;1126.40;;;;;;5026785;28;20036;-67
2021/05/02 10:14:36;;;;;;;16.27;4.97;;;793.70;1152.00;;;;;;5028947;28;20425;-66
2021/05/02 10:17:03;;;;;;;15.80;4.05;;;794.10;1126.40;;;;;;5028106;28;20052;-67
2021/05/02 10:19:29;;;;;;;26.92;14.05;;;793.90;1126.40;;;;;;5032356;28;20044;-65
2021/05/02 10:21:55;;;;;;;15.00;3.40;;;793.90;1126.40;;;;;;5017461;28;20163;-66
2021/05/02 10:24:22;;;;;;;14.32;3.08;;;768.90;1100.80;;;;;;5024368;28;20137;-66
2021/05/02 10:26:53;;;;;;;25.15;11.95;;;768.60;1100.80;;;;;;5026823;28;20037;-66
2021/05/02 10:29:30;;;;;;;24.40;9.70;;;768.80;1126.40;;;;;;5005937;28;20563;-65
2021/05/02 10:32:04;;;;;;;17.50;4.20;;;793.70;1126.40;;;;;;5019081;28;20396;-66
2021/05/02 10:34:39;;;;;;;18.08;5.30;;;793.70;1126.40;;;;;;5026267;28;20028;-64
2021/05/02 10:37:32;;;;;;;18.80;4.93;;;794.10;1126.40;;;;;;5022642;28;20402;-66
2021/05/02 10:40:02;;;;;;;19.30;5.40;;;794.50;1126.40;;;;;;5021574;28;20030;-65
2021/05/02 10:42:54;;;;;;;23.30;10.77;;;794.50;1100.80;;;;;;5030017;28;20029;-65
2021/05/02 10:48:14;;;;;;;25.58;10.98;;;794.40;1100.80;;;;;;5026325;28;20029;-65
2021/05/02 10:50:45;;;;;;;16.50;5.45;;;794.00;1126.40;;;;;;5013392;28;20021;-66
2021/05/02 10:53:18;;;;;;;20.08;9.38;;;793.70;1152.00;;;;;;5026134;28;20083;-67
2021/05/02 10:56:05;;;;;;;19.27;9.27;;;794.20;1152.00;;;;;;5031277;28;20017;-65
2021/05/02 10:58:37;;;;;;;15.82;4.60;;;793.80;1126.40;;;;;;5022687;28;20033;-65
2021/05/02 11:01:05;;;;;;;18.33;5.82;;;768.90;1100.80;;;;;;5022737;28;20125;-68
2021/05/02 11:03:36;;;;;;;14.60;4.32;;;768.60;1100.80;;;;;;5018092;28;20076;-64
2021/05/02 11:06:13;;;;;;;15.15;4.40;;;768.60;1100.80;;;;;;5025877;28;20330;-65
2021/05/02 11:08:52;;;;;;;18.33;5.63;;;768.60;1100.80;;;;;;5011138;28;20105;-66
2021/05/02 11:11:37;;;;;;;17.02;5.07;;;793.80;1126.40;;;;;;5007985;28;20022;-66
2021/05/02 11:16:38;;;;;;;18.80;4.38;;;794.10;1100.80;;;;;;5016247;28;20394;-66
2021/05/02 11:19:25;;;;;;;12.20;3.75;;;794.50;1075.20;;;;;;5020629;28;20055;-66
2021/05/02 11:21:51;;;;;;;17.35;6.25;;;794.50;1100.80;;;;;;4999316;28;20458;-66
2021/05/02 11:24:43;;;;;;;17.25;5.50;;;794.50;1100.80;;;;;;5000620;28;20077;-67
2021/05/02 11:30:01;;;;;;;14.38;4.13;;;794.40;1100.80;;;;;;5006898;28;20080;-68
2021/05/02 11:32:30;;;;;;;16.85;5.75;;;794.00;1126.40;;;;;;5021463;28;20155;-65
2021/05/02 11:35:06;;;;;;;16.60;6.75;;;794.20;1126.40;;;;;;5020254;28;20033;-69
2021/05/02 11:37:44;;;;;;;12.25;4.78;;;794.50;1126.40;;;;;;5014075;28;20030;-66
2021/05/02 11:40:27;;;;;;;12.70;3.05;;;819.60;1126.40;;;;;;5015052;28;20030;-66
2021/05/02 11:42:54;;;;;;;11.02;3.83;;;819.30;1075.20;;;;;;5024905;28;20136;-66
2021/05/02 11:45:22;;;;;;;13.77;5.13;;;819.80;1075.20;;;;;;5019117;28;20039;-64
2021/05/02 11:47:48;;;;;;;20.10;4.88;;;819.70;1075.20;;;;;;5012579;28;20030;-67
2021/05/02 11:50:16;;;;;;;14.25;4.43;;;820.00;1100.80;;;;;;5015071;28;20065;-66
2021/05/02 11:52:49;;;;;;;14.32;5.18;;;820.10;1100.80;;;;;;5019292;28;20060;-66
2021/05/02 11:55:29;;;;;;;16.08;5.60;;;819.80;1075.20;;;;;;5013368;28;20080;-66
2021/05/02 11:57:55;;;;;;;28.45;15.13;;;819.60;1075.20;;;;;;5020204;28;20053;-71
2021/05/02 12:00:38;;;;;;;15.98;5.25;;;819.30;1075.20;;;;;;5019671;28;20053;-67
2021/05/02 12:03:15;;;;;;;17.48;6.20;;;819.30;1100.80;;;;;;5017766;28;20074;-66
2021/05/02 12:05:57;;;;;;;14.95;3.63;;;819.30;1075.20;;;;;;5027439;28;20478;-66
2021/05/02 12:08:24;;;;;;;19.25;5.90;;;819.60;1075.20;;;;;;5020497;28;20088;-68
2021/05/02 12:10:58;;;;;;;19.65;8.90;;;819.40;1100.80;;;;;;5013581;28;20021;-67
2021/05/02 12:13:36;;;;;;;13.85;4.30;;;819.30;1075.20;;;;;;5021085;28;20079;-67
2021/05/02 12:16:10;;;;;;;12.68;2.95;;;819.40;1075.20;;;;;;5005895;28;20025;-67
2021/05/02 12:18:54;;;;;;;9.95;3.25;;;819.50;1024.00;;;;;;5013755;28;20036;-66
2021/05/02 12:21:27;;;;;;;8.77;2.90;;;819.90;1075.20;;;;;;5011037;28;20041;-66
2021/05/02 12:24:14;;;;;;;13.60;3.00;;;820.00;1024.00;;;;;;5005983;28;20030;-66
2021/05/02 12:26:43;;;;;;;10.68;3.05;;;819.90;1049.60;;;;;;5021690;28;20112;-66
2021/05/02 12:29:12;;;;;;;12.05;3.35;;;820.10;1049.60;;;;;;5020540;28;20479;-66
2021/05/02 12:31:49;;;;;;;13.32;5.43;;;820.10;998.40;;;;;;5025471;28;20037;-65